Time;durP1;ratioP1;P1;durP2;ratioP2;P2;SDS_P1;SDS_P2;PMS_P1;PMS_P2;Temp;Humidity;BMP_temperature;BMP_pressure;BME280_temperature;BME280_humidity;BME280_pressure;Samples;Min_cycle;Max_cycle;Signal;HPM_P1;HPM_P2
2023/01/23 00:01:42;;;;;;;24.13;14.23;;;4.30;1.00;;;;;;5048761;28;20587;-55
2023/01/23 00:04:08;;;;;;;21.40;12.73;;;4.30;1.00;;;;;;5047025;28;20185;-55
2023/01/23 00:06:34;;;;;;;20.83;12.80;;;4.40;1.00;;;;;;5047611;28;20234;-54
2023/01/23 00:09:00;;;;;;;22.17;13.90;;;4.50;1.00;;;;;;5047249;28;20481;-54
2023/01/23 00:11:28;;;;;;;24.97;14.60;;;4.40;1.00;;;;;;5048043;28;20212;-54
2023/01/23 00:13:56;;;;;;;20.07;13.20;;;4.50;1.00;;;;;;5047562;28;20566;-53
2023/01/23 00:16:23;;;;;;;19.50;12.00;;;4.50;1.00;;;;;;5045442;28;20451;-55
2023/01/23 00:18:50;;;;;;;21.47;13.27;;;4.50;1.00;;;;;;5047627;28;20512;-54
2023/01/23 00:21:21;;;;;;;19.07;12.80;;;4.60;1.00;;;;;;5048854;28;20448;-53
2023/01/23 00:23:49;;;;;;;18.13;12.50;;;4.60;1.00;;;;;;5046495;28;21016;-55
2023/01/23 00:26:18;;;;;;;21.43;12.50;;;4.60;1.00;;;;;;5046383;28;20455;-54
2023/01/23 00:28:45;;;;;;;17.63;11.43;;;4.50;1.00;;;;;;5043600;28;20448;-53
2023/01/23 00:31:16;;;;;;;18.37;11.03;;;4.50;1.00;;;;;;5048455;28;20443;-55
2023/01/23 00:33:43;;;;;;;19.57;13.60;;;4.50;1.00;;;;;;5047599;28;20470;-52
2023/01/23 00:36:10;;;;;;;19.23;11.70;;;4.50;1.00;;;;;;5050239;28;20446;-55
2023/01/23 00:38:36;;;;;;;18.73;12.23;;;4.50;1.00;;;;;;5049564;28;20445;-53
2023/01/23 00:41:02;;;;;;;19.60;11.70;;;4.50;1.00;;;;;;5049324;28;20509;-53
2023/01/23 00:43:29;;;;;;;21.47;11.80;;;4.50;1.00;;;;;;5046300;28;20200;-55
2023/01/23 00:45:55;;;;;;;21.83;13.63;;;4.50;1.00;;;;;;5049919;28;20979;-55
2023/01/23 00:48:20;;;;;;;21.03;13.80;;;4.50;1.00;;;;;;5047823;28;20487;-52
2023/01/23 00:50:46;;;;;;;19.13;12.67;;;4.60;1.00;;;;;;5057530;28;20481;-53
2023/01/23 00:53:12;;;;;;;20.83;12.00;;;4.70;1.00;;;;;;5054249;28;20205;-54
2023/01/23 00:55:38;;;;;;;20.37;12.57;;;4.70;1.00;;;;;;5048672;28;20604;-54
2023/01/23 00:58:04;;;;;;;19.80;12.80;;;4.70;1.00;;;;;;5049164;28;20190;-54
2023/01/23 01:00:30;;;;;;;16.93;11.43;;;4.60;1.00;;;;;;5046094;28;20444;-53
2023/01/23 01:02:55;;;;;;;18.30;12.27;;;4.60;1.00;;;;;;5049613;28;20185;-53
2023/01/23 01:05:21;;;;;;;22.57;13.57;;;4.60;1.00;;;;;;5050691;28;20200;-52
2023/01/23 01:07:47;;;;;;;19.57;11.80;;;4.60;1.00;;;;;;5047755;28;20659;-54
2023/01/23 01:10:13;;;;;;;16.33;11.60;;;4.60;1.00;;;;;;5049281;28;20190;-53
2023/01/23 01:12:39;;;;;;;20.23;12.77;;;4.60;1.00;;;;;;5048997;28;20181;-54
2023/01/23 01:15:06;;;;;;;17.30;11.80;;;4.70;1.00;;;;;;5049779;28;20861;-53
2023/01/23 01:17:32;;;;;;;19.47;12.87;;;4.60;1.00;;;;;;5048381;28;20215;-53
2023/01/23 01:19:57;;;;;;;17.43;12.23;;;4.60;1.00;;;;;;5048325;28;20440;-52
2023/01/23 01:22:23;;;;;;;18.60;13.00;;;4.60;1.00;;;;;;5048468;28;20267;-53
2023/01/23 01:24:49;;;;;;;18.80;12.57;;;4.60;1.00;;;;;;5044917;28;20690;-53
2023/01/23 01:27:14;;;;;;;18.53;12.60;;;4.70;1.00;;;;;;5050246;28;20393;-54
2023/01/23 01:29:40;;;;;;;18.00;11.67;;;4.60;1.00;;;;;;5046375;28;20196;-53
2023/01/23 01:32:06;;;;;;;18.60;11.83;;;4.50;1.00;;;;;;5049444;28;20255;-53
2023/01/23 01:34:31;;;;;;;16.90;11.63;;;4.50;1.00;;;;;;5050491;28;20222;-52
2023/01/23 01:36:57;;;;;;;16.20;11.90;;;4.60;1.00;;;;;;5048676;28;20250;-53
2023/01/23 01:39:23;;;;;;;21.30;12.57;;;4.50;1.00;;;;;;5049513;28;20197;-54
2023/01/23 01:41:48;;;;;;;20.70;11.70;;;4.40;1.00;;;;;;5049093;28;20193;-54
2023/01/23 01:44:19;;;;;;;21.10;12.77;;;4.40;1.00;;;;;;5046992;28;20189;-53
2023/01/23 01:46:45;;;;;;;20.57;11.90;;;4.40;1.00;;;;;;5046744;28;20206;-53
2023/01/23 01:49:29;;;;;;;20.43;13.13;;;4.50;1.00;;;;;;5050532;28;20524;-53
2023/01/23 01:52:03;;;;;;;19.90;12.40;;;4.50;1.00;;;;;;5046520;28;20464;-54
2023/01/23 01:54:42;;;;;;;22.37;13.50;;;4.60;1.00;;;;;;5046793;28;22003;-55
2023/01/23 01:57:22;;;;;;;19.17;11.50;;;4.70;1.00;;;;;;5046887;28;20486;-54
2023/01/23 01:59:53;;;;;;;19.07;13.30;;;4.70;1.00;;;;;;5050187;28;20947;-53
2023/01/23 02:02:24;;;;;;;16.90;10.67;;;4.80;1.00;;;;;;5045199;28;20483;-54
2023/01/23 02:04:53;;;;;;;21.63;13.20;;;4.80;1.00;;;;;;5052792;28;20549;-54
2023/01/23 02:07:38;;;;;;;18.13;11.60;;;4.90;1.00;;;;;;5051289;28;20855;-55
2023/01/23 02:10:07;;;;;;;17.80;11.10;;;4.90;1.00;;;;;;5048164;28;20892;-54
2023/01/23 02:12:34;;;;;;;19.43;12.07;;;4.90;1.00;;;;;;5051001;28;21008;-54
2023/01/23 02:15:01;;;;;;;17.63;11.67;;;4.80;1.00;;;;;;5047893;28;20817;-52
2023/01/23 02:17:27;;;;;;;20.20;12.83;;;4.90;1.00;;;;;;5048267;28;20475;-54
2023/01/23 02:20:02;;;;;;;17.07;11.60;;;4.90;1.00;;;;;;5043834;28;20912;-54
2023/01/23 02:22:46;;;;;;;17.67;12.10;;;4.90;1.00;;;;;;5049329;28;20803;-54
2023/01/23 02:25:33;;;;;;;19.43;12.43;;;5.00;1.00;;;;;;5058362;28;20953;-53
2023/01/23 02:28:00;;;;;;;18.90;11.40;;;5.00;1.00;;;;;;5049776;28;20900;-55
2023/01/23 02:30:25;;;;;;;19.43;12.27;;;4.90;1.00;;;;;;5048346;28;20801;-53
2023/01/23 02:32:51;;;;;;;18.00;11.70;;;4.80;1.00;;;;;;5047322;28;20535;-54
2023/01/23 02:35:26;;;;;;;19.30;11.97;;;4.80;1.00;;;;;;5053445;28;20204;-54
2023/01/23 02:37:57;;;;;;;18.50;11.60;;;4.70;1.00;;;;;;5047035;28;20198;-53
2023/01/23 02:40:38;;;;;;;18.67;12.73;;;4.70;1.00;;;;;;5046842;28;20461;-55
2023/01/23 02:43:07;;;;;;;22.57;12.67;;;4.70;1.00;;;;;;5052393;28;20530;-53
2023/01/23 02:45:32;;;;;;;17.83;12.40;;;4.70;1.00;;;;;;5056917;28;20974;-54
2023/01/23 02:48:00;;;;;;;18.90;12.10;;;4.60;1.00;;;;;;5048204;28;20507;-53
2023/01/23 02:50:26;;;;;;;23.60;12.80;;;4.60;1.00;;;;;;5041349;28;20600;-55
2023/01/23 02:52:53;;;;;;;17.30;12.60;;;4.60;1.00;;;;;;5045425;28;20577;-55
2023/01/23 02:55:22;;;;;;;16.43;11.23;;;4.70;1.00;;;;;;5046500;28;20458;-54
2023/01/23 02:57:48;;;;;;;19.70;12.33;;;4.60;1.00;;;;;;5046263;28;20461;-53
2023/01/23 03:00:18;;;;;;;19.60;11.40;;;4.60;1.00;;;;;;5047590;28;20451;-54
2023/01/23 03:02:49;;;;;;;19.73;11.70;;;4.50;1.00;;;;;;5041405;28;20216;-54
2023/01/23 03:05:15;;;;;;;17.53;10.83;;;4.50;1.00;;;;;;5046324;28;20456;-54
2023/01/23 03:07:41;;;;;;;15.10;11.33;;;4.60;1.00;;;;;;5046072;28;20521;-53
2023/01/23 03:10:09;;;;;;;18.90;11.63;;;4.60;1.00;;;;;;5045447;28;20465;-53
2023/01/23 03:12:38;;;;;;;20.33;12.23;;;4.60;1.00;;;;;;5048163;28;20447;-54
2023/01/23 03:15:04;;;;;;;14.80;10.80;;;4.60;1.00;;;;;;5048499;28;20460;-53
2023/01/23 03:17:31;;;;;;;16.13;12.00;;;4.60;1.00;;;;;;5047181;28;20948;-53
2023/01/23 03:19:57;;;;;;;23.07;14.07;;;4.60;1.00;;;;;;5042722;28;20525;-53
2023/01/23 03:22:22;;;;;;;18.17;11.50;;;4.50;1.00;;;;;;5046148;28;20496;-55
2023/01/23 03:24:48;;;;;;;21.47;13.33;;;4.50;1.00;;;;;;5047180;28;20791;-54
2023/01/23 03:27:14;;;;;;;17.93;12.30;;;4.40;1.00;;;;;;5045177;28;20197;-54
2023/01/23 03:30:24;;;;;;;18.27;11.63;;;4.40;1.00;;;;;;5046670;28;20192;-55
2023/01/23 03:32:29;;;;;;;18.47;10.80;;;4.40;1.00;;;;;;5041995;28;20947;-52
2023/01/23 03:34:55;;;;;;;19.80;12.77;;;4.40;1.00;;;;;;5046140;28;20467;-53
2023/01/23 03:37:21;;;;;;;19.33;13.20;;;4.40;1.00;;;;;;5043618;28;20456;-54
2023/01/23 03:42:33;;;;;;;16.97;11.00;;;4.40;1.00;;;;;;5043678;28;20705;-53
2023/01/23 03:44:59;;;;;;;18.00;12.77;;;4.40;1.00;;;;;;5046767;28;20453;-53
2023/01/23 03:47:25;;;;;;;18.70;12.07;;;4.40;1.00;;;;;;5047890;28;20497;-53
2023/01/23 03:49:51;;;;;;;17.00;12.17;;;4.50;1.00;;;;;;5046529;28;20696;-54
2023/01/23 03:52:17;;;;;;;18.20;11.47;;;4.50;1.00;;;;;;5046713;28;20911;-54
2023/01/23 03:54:43;;;;;;;21.00;12.67;;;4.50;1.00;;;;;;5046319;28;20470;-52
2023/01/23 03:57:09;;;;;;;18.20;13.00;;;4.50;1.00;;;;;;5052412;28;20182;-53
2023/01/23 03:59:34;;;;;;;19.67;13.30;;;4.60;1.00;;;;;;5044595;28;20189;-55
2023/01/23 04:02:03;;;;;;;16.80;12.20;;;4.70;1.00;;;;;;5046188;28;21129;-53
2023/01/23 04:04:30;;;;;;;14.50;10.40;;;4.70;1.00;;;;;;5052393;28;20191;-54
2023/01/23 04:06:55;;;;;;;20.30;11.20;;;4.70;1.00;;;;;;5050760;28;20471;-55
2023/01/23 04:09:26;;;;;;;18.30;11.17;;;4.70;1.00;;;;;;5051996;28;20443;-55
2023/01/23 04:11:52;;;;;;;18.30;11.90;;;4.70;1.00;;;;;;5048597;28;20221;-53
2023/01/23 04:14:18;;;;;;;15.63;11.63;;;4.70;1.00;;;;;;5051989;28;20472;-54
2023/01/23 04:16:43;;;;;;;16.97;12.40;;;4.80;1.00;;;;;;5047740;28;20801;-54
2023/01/23 04:19:09;;;;;;;19.93;12.43;;;4.90;1.00;;;;;;5052350;28;20189;-53
2023/01/23 04:21:35;;;;;;;17.10;11.80;;;4.90;1.00;;;;;;5050258;28;20277;-53
2023/01/23 04:24:00;;;;;;;17.40;12.30;;;4.80;1.00;;;;;;5080062;28;20193;-53
2023/01/23 04:26:26;;;;;;;15.63;11.93;;;4.90;1.00;;;;;;5049229;28;20192;-52
2023/01/23 04:28:51;;;;;;;17.47;11.90;;;4.90;1.00;;;;;;5048940;28;20188;-54
2023/01/23 04:31:17;;;;;;;16.33;12.00;;;4.90;1.00;;;;;;5049381;28;20196;-53
2023/01/23 04:33:43;;;;;;;16.80;11.33;;;4.80;1.00;;;;;;5049161;28;20295;-56
2023/01/23 04:36:10;;;;;;;18.93;12.70;;;4.80;1.00;;;;;;5042012;28;20188;-55
2023/01/23 04:38:35;;;;;;;17.80;11.57;;;4.80;1.00;;;;;;5050410;28;20261;-52
2023/01/23 04:41:02;;;;;;;20.27;13.27;;;4.70;1.00;;;;;;5063183;28;21037;-55
2023/01/23 04:43:28;;;;;;;19.40;13.43;;;4.70;1.00;;;;;;5051555;28;20658;-55
2023/01/23 04:45:55;;;;;;;19.07;13.07;;;4.70;1.00;;;;;;5047387;28;20491;-53
2023/01/23 04:48:21;;;;;;;20.37;12.60;;;4.70;1.00;;;;;;5046971;28;20972;-55
2023/01/23 04:50:48;;;;;;;21.37;12.60;;;4.70;1.00;;;;;;5051156;28;20479;-55
2023/01/23 04:53:14;;;;;;;18.13;11.83;;;4.60;1.00;;;;;;5044758;28;20465;-54
2023/01/23 04:55:40;;;;;;;21.27;13.27;;;4.70;1.00;;;;;;5049837;28;20439;-55
2023/01/23 04:58:06;;;;;;;19.03;13.83;;;4.60;1.00;;;;;;5050502;28;20193;-56
2023/01/23 05:00:31;;;;;;;18.00;12.83;;;4.50;1.00;;;;;;5048081;28;20802;-53
2023/01/23 05:02:57;;;;;;;24.17;11.87;;;4.50;1.00;;;;;;5047704;28;20177;-53
2023/01/23 05:05:23;;;;;;;18.73;11.97;;;4.50;1.00;;;;;;5048301;28;20188;-54
2023/01/23 05:07:50;;;;;;;17.27;12.57;;;4.40;1.00;;;;;;5049394;28;20888;-53
2023/01/23 05:10:16;;;;;;;19.57;13.53;;;4.40;1.00;;;;;;5050761;28;20857;-55
2023/01/23 05:12:42;;;;;;;18.77;12.63;;;4.40;1.00;;;;;;5047839;28;20470;-52
2023/01/23 05:15:08;;;;;;;24.67;13.60;;;4.40;1.00;;;;;;5049406;28;20466;-53
2023/01/23 05:17:34;;;;;;;18.77;12.23;;;4.40;1.00;;;;;;5048560;28;20443;-54
2023/01/23 05:20:00;;;;;;;19.90;13.70;;;4.30;1.00;;;;;;5046036;28;20454;-54
2023/01/23 05:22:25;;;;;;;23.87;14.67;;;4.30;1.00;;;;;;5049406;28;20462;-53
2023/01/23 05:24:51;;;;;;;18.17;12.47;;;4.30;1.00;;;;;;5049501;28;20646;-55
2023/01/23 05:27:17;;;;;;;19.97;13.70;;;4.40;1.00;;;;;;5046598;28;20200;-53
2023/01/23 05:29:43;;;;;;;18.13;12.13;;;4.40;1.00;;;;;;5054549;28;20308;-53
2023/01/23 05:32:08;;;;;;;21.30;14.10;;;4.50;1.00;;;;;;5053227;28;20185;-57
2023/01/23 05:34:34;;;;;;;25.13;15.70;;;4.60;1.00;;;;;;5050103;28;20245;-55
2023/01/23 05:37:00;;;;;;;24.20;13.13;;;4.60;1.00;;;;;;5053406;28;20213;-52
2023/01/23 05:39:25;;;;;;;19.43;12.67;;;4.50;1.00;;;;;;5050371;28;20200;-56
2023/01/23 05:41:51;;;;;;;17.67;12.90;;;4.60;1.00;;;;;;5050200;28;21781;-52
2023/01/23 05:44:17;;;;;;;17.67;12.63;;;4.60;1.00;;;;;;5049214;28;20196;-54
2023/01/23 05:46:42;;;;;;;23.73;14.23;;;4.60;1.00;;;;;;5048538;28;20443;-57
2023/01/23 05:49:08;;;;;;;25.07;15.30;;;4.60;1.00;;;;;;5047602;28;20252;-54
2023/01/23 05:51:33;;;;;;;27.70;17.27;;;4.70;1.00;;;;;;5047649;28;20657;-55
2023/01/23 05:54:00;;;;;;;21.47;14.90;;;4.60;1.00;;;;;;5049023;28;20216;-54
2023/01/23 05:56:26;;;;;;;20.10;13.27;;;4.50;1.00;;;;;;5048928;28;20671;-54
2023/01/23 05:58:52;;;;;;;21.13;12.93;;;4.50;1.00;;;;;;5049577;28;20476;-53
2023/01/23 06:01:18;;;;;;;25.17;14.87;;;4.50;1.00;;;;;;5048747;28;20196;-54
2023/01/23 06:03:44;;;;;;;23.03;15.07;;;4.50;1.00;;;;;;5046142;28;20212;-55
2023/01/23 06:06:09;;;;;;;39.27;24.30;;;4.60;1.00;;;;;;5050481;28;20435;-55
2023/01/23 06:08:35;;;;;;;35.13;22.20;;;4.60;1.00;;;;;;5048424;28;20580;-53
2023/01/23 06:11:01;;;;;;;29.40;17.90;;;4.50;1.00;;;;;;5048067;28;20187;-53
2023/01/23 06:13:27;;;;;;;23.43;16.20;;;4.50;1.00;;;;;;5050245;28;20211;-55
2023/01/23 06:15:53;;;;;;;24.67;16.70;;;4.50;1.00;;;;;;5047125;28;20722;-54
2023/01/23 06:18:19;;;;;;;26.87;14.30;;;4.60;1.00;;;;;;5047494;28;20444;-54
2023/01/23 06:20:45;;;;;;;21.83;14.30;;;4.80;1.00;;;;;;5049320;28;20439;-53
2023/01/23 06:23:11;;;;;;;28.30;17.90;;;4.80;1.00;;;;;;5055236;28;20196;-54
2023/01/23 06:25:37;;;;;;;23.80;15.57;;;4.80;1.00;;;;;;5049900;28;20442;-54
2023/01/23 06:28:03;;;;;;;29.10;17.63;;;4.70;1.00;;;;;;5044142;28;20198;-54
2023/01/23 06:30:29;;;;;;;33.73;20.67;;;4.60;1.00;;;;;;5048413;28;20791;-55
2023/01/23 06:32:54;;;;;;;34.13;18.50;;;4.50;1.00;;;;;;5048245;28;20791;-55
2023/01/23 06:35:20;;;;;;;36.40;21.53;;;4.40;1.00;;;;;;5048533;28;20767;-53
2023/01/23 06:37:46;;;;;;;32.20;17.80;;;4.40;1.00;;;;;;5049152;28;20666;-53
2023/01/23 06:40:16;;;;;;;33.30;18.23;;;4.40;1.00;;;;;;5048522;28;20994;-55
2023/01/23 06:42:42;;;;;;;25.53;16.03;;;4.30;1.00;;;;;;5060717;28;20490;-54
2023/01/23 06:45:09;;;;;;;27.17;17.03;;;4.40;1.00;;;;;;5047780;28;20446;-54
2023/01/23 06:47:35;;;;;;;25.20;17.33;;;4.30;1.00;;;;;;5049591;28;20446;-53
2023/01/23 06:50:01;;;;;;;28.17;16.13;;;4.30;1.00;;;;;;5060725;28;20829;-54
2023/01/23 06:52:27;;;;;;;29.77;17.50;;;4.30;1.00;;;;;;5049581;28;20447;-54
2023/01/23 06:54:53;;;;;;;32.83;18.00;;;4.30;1.00;;;;;;5047974;28;20264;-52
2023/01/23 06:57:19;;;;;;;33.03;20.00;;;4.20;1.00;;;;;;5048143;28;20439;-52
2023/01/23 06:59:45;;;;;;;34.00;21.37;;;4.20;1.00;;;;;;5046861;28;20224;-56
2023/01/23 07:02:11;;;;;;;26.70;16.57;;;4.10;1.00;;;;;;5046292;28;20472;-53
2023/01/23 07:04:36;;;;;;;31.57;17.20;;;4.10;1.00;;;;;;5048767;28;20240;-52
2023/01/23 07:07:02;;;;;;;34.90;20.20;;;4.20;1.00;;;;;;5048984;28;20470;-55
2023/01/23 07:09:28;;;;;;;27.57;17.13;;;4.20;1.00;;;;;;5052506;28;20276;-53
2023/01/23 07:11:54;;;;;;;28.30;18.60;;;4.30;1.00;;;;;;5054956;28;20544;-55
2023/01/23 07:14:20;;;;;;;27.20;15.20;;;4.30;1.00;;;;;;5046952;28;20219;-55
2023/01/23 07:16:46;;;;;;;28.83;18.50;;;4.40;1.00;;;;;;5046050;28;20192;-54
2023/01/23 07:19:12;;;;;;;27.17;17.00;;;4.40;1.00;;;;;;5048486;28;20965;-55
2023/01/23 07:21:37;;;;;;;35.77;19.40;;;4.40;1.00;;;;;;5047962;28;20451;-55
2023/01/23 07:24:03;;;;;;;33.67;20.03;;;4.50;1.00;;;;;;5047198;28;20197;-55
2023/01/23 07:26:29;;;;;;;35.27;18.10;;;4.60;1.00;;;;;;5047630;28;20195;-54
2023/01/23 07:28:54;;;;;;;30.20;19.33;;;4.70;1.00;;;;;;5048327;28;20455;-55
2023/01/23 07:31:20;;;;;;;36.50;18.43;;;4.80;1.00;;;;;;5051338;28;20200;-53
2023/01/23 07:33:46;;;;;;;29.10;17.90;;;4.80;1.00;;;;;;5056867;28;21539;-54
2023/01/23 07:36:17;;;;;;;32.00;19.50;;;5.00;1.00;;;;;;5048345;28;20465;-55
2023/01/23 07:38:43;;;;;;;29.13;17.77;;;5.10;1.00;;;;;;5048345;28;20202;-54
2023/01/23 07:41:09;;;;;;;30.30;17.20;;;5.00;1.00;;;;;;5048989;28;20439;-57
2023/01/23 07:43:34;;;;;;;31.37;19.30;;;5.00;1.00;;;;;;5048588;28;20186;-53
2023/01/23 07:46:02;;;;;;;25.60;17.00;;;5.20;1.00;;;;;;5048289;28;20444;-53
2023/01/23 07:48:28;;;;;;;29.10;17.73;;;5.20;1.00;;;;;;5048076;28;20187;-54
2023/01/23 07:50:54;;;;;;;30.60;18.83;;;5.20;1.00;;;;;;5048208;28;20565;-53
2023/01/23 07:53:20;;;;;;;46.10;29.80;;;5.20;1.00;;;;;;5044318;28;20952;-53
2023/01/23 07:55:45;;;;;;;30.50;19.10;;;5.20;1.00;;;;;;5047820;28;20447;-54
2023/01/23 07:58:11;;;;;;;31.23;19.03;;;5.20;1.00;;;;;;5048638;28;20264;-55
2023/01/23 08:00:37;;;;;;;26.67;17.20;;;5.10;1.00;;;;;;5048810;28;20268;-56
2023/01/23 08:03:03;;;;;;;26.20;17.73;;;5.00;1.00;;;;;;5047075;28;20196;-54
2023/01/23 08:05:28;;;;;;;26.90;16.00;;;5.10;1.00;;;;;;5056176;28;20438;-54
2023/01/23 08:07:54;;;;;;;22.93;16.10;;;5.20;1.00;;;;;;5049253;28;20649;-55
2023/01/23 08:10:20;;;;;;;22.40;15.63;;;5.20;1.00;;;;;;5048472;28;20276;-53
2023/01/23 08:12:45;;;;;;;25.80;15.80;;;5.20;1.00;;;;;;5048498;28;20241;-55
2023/01/23 08:15:11;;;;;;;29.13;17.70;;;5.20;1.00;;;;;;5048370;28;20213;-55
2023/01/23 08:17:37;;;;;;;26.30;16.20;;;5.20;1.00;;;;;;5048446;28;20635;-52
2023/01/23 08:20:03;;;;;;;25.07;15.60;;;5.10;1.00;;;;;;5055324;28;20473;-56
2023/01/23 08:22:29;;;;;;;24.63;17.07;;;5.00;1.00;;;;;;5048498;28;20195;-53
2023/01/23 08:24:54;;;;;;;25.67;15.70;;;5.00;1.00;;;;;;5056081;28;20523;-55
2023/01/23 08:27:20;;;;;;;26.00;16.23;;;4.90;1.00;;;;;;5045413;28;20201;-53
2023/01/23 08:29:46;;;;;;;26.83;16.37;;;4.90;1.00;;;;;;5047707;28;20273;-53
2023/01/23 08:32:11;;;;;;;26.40;16.40;;;4.80;1.00;;;;;;5047217;28;20664;-53
2023/01/23 08:34:37;;;;;;;29.07;17.67;;;4.90;1.00;;;;;;5048098;28;20217;-55
2023/01/23 08:37:02;;;;;;;24.90;16.20;;;4.90;1.00;;;;;;5048184;28;20259;-54
2023/01/23 08:39:28;;;;;;;25.43;17.33;;;4.90;1.00;;;;;;5049470;28;20180;-55
2023/01/23 08:41:54;;;;;;;25.63;15.77;;;4.90;1.00;;;;;;5052617;28;20216;-55
2023/01/23 08:44:19;;;;;;;25.77;16.10;;;4.90;1.00;;;;;;5050097;28;20193;-55
2023/01/23 08:46:45;;;;;;;24.80;16.40;;;5.00;1.00;;;;;;5050586;28;20196;-55
2023/01/23 08:49:11;;;;;;;26.43;16.80;;;5.00;1.00;;;;;;5051941;28;20631;-53
2023/01/23 08:51:37;;;;;;;24.37;17.30;;;4.90;1.00;;;;;;5061286;28;20457;-54
2023/01/23 08:54:03;;;;;;;26.87;16.53;;;5.00;1.00;;;;;;5054047;28;20553;-54
2023/01/23 08:56:29;;;;;;;23.23;16.07;;;5.10;1.00;;;;;;5051075;28;20800;-54
2023/01/23 08:58:54;;;;;;;27.60;17.43;;;5.20;1.00;;;;;;5051489;28;20202;-55
2023/01/23 09:01:23;;;;;;;33.30;21.00;;;5.30;1.00;;;;;;5051458;28;21107;-53
2023/01/23 09:03:49;;;;;;;26.60;16.23;;;5.40;1.00;;;;;;5051522;28;20307;-55
2023/01/23 09:06:17;;;;;;;29.43;19.07;;;5.50;1.00;;;;;;5051415;28;20526;-54
2023/01/23 09:08:44;;;;;;;32.00;20.83;;;5.50;1.00;;;;;;5050828;28;20671;-54
2023/01/23 09:11:10;;;;;;;28.33;17.30;;;5.40;1.00;;;;;;5051499;28;20440;-54
2023/01/23 09:13:37;;;;;;;29.33;17.80;;;5.30;1.00;;;;;;5050841;28;20475;-55
2023/01/23 09:16:04;;;;;;;30.00;18.57;;;5.00;1.00;;;;;;5050444;28;20808;-55
2023/01/23 09:18:29;;;;;;;34.60;18.60;;;4.80;1.00;;;;;;5051042;28;21068;-55
2023/01/23 09:24:21;;;;;;;31.73;15.57;;;4.50;1.00;;;;;;4941811;28;20208;-54
2023/01/23 09:26:47;;;;;;;34.23;20.33;;;4.40;1.00;;;;;;5060650;28;20913;-53
2023/01/23 09:29:14;;;;;;;31.43;18.27;;;4.40;1.00;;;;;;5071440;28;20177;-54
2023/01/23 09:31:39;;;;;;;35.83;17.73;;;4.50;1.00;;;;;;5050182;28;20266;-53
2023/01/23 09:34:06;;;;;;;34.57;19.50;;;4.60;1.00;;;;;;5059745;28;20555;-53
2023/01/23 09:36:32;;;;;;;35.20;18.67;;;4.70;1.00;;;;;;5061314;28;20197;-55
2023/01/23 09:38:57;;;;;;;33.40;19.07;;;4.90;1.00;;;;;;5051189;28;20439;-52
2023/01/23 09:41:26;;;;;;;27.07;17.00;;;5.00;1.00;;;;;;5049666;28;20554;-54
2023/01/23 09:43:59;;;;;;;29.27;17.17;;;4.90;1.00;;;;;;5051055;28;20201;-54
2023/01/23 09:46:35;;;;;;;34.93;18.37;;;4.70;1.00;;;;;;5051325;28;20566;-54
2023/01/23 09:49:11;;;;;;;35.03;18.20;;;4.70;1.00;;;;;;5050295;28;20951;-52
2023/01/23 09:51:37;;;;;;;29.33;16.40;;;4.70;1.00;;;;;;5048623;28;20957;-54
2023/01/23 09:54:46;;;;;;;26.80;17.40;;;4.80;1.00;;;;;;5049808;28;20471;-55
2023/01/23 09:57:17;;;;;;;33.10;17.10;;;4.70;1.00;;;;;;5037246;28;20200;-53
2023/01/23 09:59:51;;;;;;;27.80;16.30;;;4.80;1.00;;;;;;5050711;28;20435;-54
2023/01/23 10:02:19;;;;;;;32.50;18.57;;;5.00;1.00;;;;;;5050141;28;20990;-54
2023/01/23 10:04:50;;;;;;;24.30;14.33;;;4.90;1.00;;;;;;5049283;28;20616;-53
2023/01/23 10:07:24;;;;;;;28.50;17.77;;;4.70;1.00;;;;;;5050674;28;20444;-54
2023/01/23 10:09:53;;;;;;;29.07;17.60;;;4.60;1.00;;;;;;5054151;28;20454;-56
2023/01/23 10:12:49;;;;;;;32.57;18.60;;;4.70;1.00;;;;;;5057782;28;20444;-54
2023/01/23 10:15:41;;;;;;;29.50;17.77;;;4.70;1.00;;;;;;5050084;28;20902;-55
2023/01/23 10:18:32;;;;;;;36.07;21.77;;;4.80;1.00;;;;;;5049645;28;20446;-53
2023/01/23 10:21:08;;;;;;;33.20;21.17;;;4.70;1.00;;;;;;5048457;28;20454;-55
2023/01/23 10:23:47;;;;;;;29.80;17.37;;;4.60;1.00;;;;;;5050547;28;20441;-56
2023/01/23 10:26:23;;;;;;;32.47;19.53;;;4.70;1.00;;;;;;5049605;28;20470;-53
2023/01/23 10:28:53;;;;;;;37.70;20.80;;;4.80;1.00;;;;;;5050211;28;20522;-53
2023/01/23 10:31:27;;;;;;;33.00;17.50;;;4.90;1.00;;;;;;5050410;28;20501;-53
2023/01/23 10:34:05;;;;;;;30.13;17.23;;;4.90;1.00;;;;;;5050089;28;20464;-54
2023/01/23 10:37:06;;;;;;;34.57;18.43;;;4.90;1.00;;;;;;5055476;28;20552;-54
2023/01/23 10:39:58;;;;;;;26.27;16.07;;;5.00;1.00;;;;;;5062306;28;20525;-55
2023/01/23 10:42:26;;;;;;;30.13;16.80;;;5.00;1.00;;;;;;5070135;28;20427;-55
2023/01/23 10:44:51;;;;;;;41.63;17.00;;;5.00;1.00;;;;;;5065199;28;20485;-57
2023/01/23 10:47:28;;;;;;;26.27;16.20;;;5.20;1.00;;;;;;5049664;28;20920;-55
2023/01/23 10:49:53;;;;;;;30.27;17.57;;;5.30;1.00;;;;;;5049992;28;20686;-55
2023/01/23 10:52:41;;;;;;;28.63;16.80;;;5.40;1.00;;;;;;5061278;28;20444;-56
2023/01/23 10:55:27;;;;;;;27.10;16.50;;;5.40;1.00;;;;;;5051243;28;20261;-55
2023/01/23 10:57:56;;;;;;;30.70;17.87;;;5.20;1.00;;;;;;5046614;28;20442;-55
2023/01/23 11:00:38;;;;;;;23.53;15.03;;;5.20;1.00;;;;;;5048953;28;20453;-55
2023/01/23 11:03:29;;;;;;;23.83;15.53;;;5.10;1.00;;;;;;5048179;28;20439;-54
2023/01/23 11:06:07;;;;;;;25.60;15.33;;;5.10;1.00;;;;;;5049360;28;20439;-53
2023/01/23 11:08:39;;;;;;;21.97;14.67;;;5.10;1.00;;;;;;5060611;28;20550;-53
2023/01/23 11:11:14;;;;;;;31.60;17.30;;;5.10;1.00;;;;;;5069269;28;20469;-55
2023/01/23 11:13:41;;;;;;;27.23;16.47;;;5.00;1.00;;;;;;5059075;28;20544;-55
2023/01/23 11:16:16;;;;;;;29.70;18.20;;;5.10;1.00;;;;;;5047678;28;20462;-55
2023/01/23 11:19:01;;;;;;;27.73;16.73;;;5.20;1.00;;;;;;5049540;28;20854;-56
2023/01/23 11:21:36;;;;;;;26.70;15.97;;;5.20;1.00;;;;;;5049568;28;20437;-55
2023/01/23 11:24:29;;;;;;;28.50;15.80;;;5.30;1.00;;;;;;5049480;28;20445;-56
2023/01/23 11:27:19;;;;;;;26.80;16.80;;;5.30;1.00;;;;;;5049503;28;20441;-55
2023/01/23 11:29:47;;;;;;;28.70;18.67;;;5.30;1.00;;;;;;5043903;28;20462;-55
2023/01/23 11:32:14;;;;;;;27.57;17.60;;;5.30;1.00;;;;;;5048391;28;20561;-53
2023/01/23 11:34:47;;;;;;;29.07;16.43;;;5.30;1.00;;;;;;5049457;28;20820;-55
2023/01/23 11:37:24;;;;;;;30.90;17.40;;;5.30;1.00;;;;;;5049058;28;20436;-54
2023/01/23 11:39:52;;;;;;;33.67;21.40;;;5.20;1.00;;;;;;5049361;28;21026;-56
2023/01/23 11:42:19;;;;;;;35.00;20.53;;;5.10;1.00;;;;;;5049038;28;20974;-56
2023/01/23 11:44:45;;;;;;;26.83;17.43;;;5.30;1.00;;;;;;5047562;28;20496;-56
2023/01/23 11:47:20;;;;;;;25.07;17.30;;;5.30;1.00;;;;;;5051890;28;20445;-55
2023/01/23 11:50:14;;;;;;;26.90;16.30;;;5.30;1.00;;;;;;5048288;28;20469;-52
2023/01/23 11:52:48;;;;;;;32.73;19.47;;;5.40;1.00;;;;;;5048666;28;20576;-55
2023/01/23 11:55:32;;;;;;;31.00;18.40;;;5.50;1.00;;;;;;5049070;28;20665;-55
2023/01/23 11:58:16;;;;;;;29.50;19.07;;;5.50;1.00;;;;;;5048916;28;20809;-54
2023/01/23 12:01:09;;;;;;;30.83;17.97;;;5.50;1.00;;;;;;5049128;28;20435;-55
2023/01/23 12:04:12;;;;;;;27.30;17.63;;;5.60;1.00;;;;;;5046846;28;20988;-55
2023/01/23 12:06:54;;;;;;;21.13;14.60;;;5.60;1.00;;;;;;5047733;28;20493;-53
2023/01/23 12:09:21;;;;;;;30.47;16.67;;;5.60;1.00;;;;;;5048641;28;20924;-54
2023/01/23 12:12:18;;;;;;;31.43;18.87;;;5.70;1.00;;;;;;5067813;28;20439;-56
2023/01/23 12:15:07;;;;;;;28.53;18.07;;;5.60;1.00;;;;;;5069952;28;20465;-55
2023/01/23 12:17:39;;;;;;;32.83;19.00;;;5.40;1.00;;;;;;5071293;28;20982;-54
2023/01/23 12:20:25;;;;;;;25.50;18.23;;;5.30;1.00;;;;;;5063691;28;20437;-52
2023/01/23 12:23:15;;;;;;;28.30;17.63;;;5.40;1.00;;;;;;5030975;28;20459;-54
2023/01/23 12:25:49;;;;;;;29.60;19.10;;;5.50;1.00;;;;;;5052530;28;20828;-55
2023/01/23 12:28:53;;;;;;;30.97;19.30;;;5.50;1.00;;;;;;5052858;28;20437;-57
2023/01/23 12:31:24;;;;;;;32.20;19.50;;;5.40;1.00;;;;;;5052404;28;20477;-54
2023/01/23 12:33:59;;;;;;;39.57;21.57;;;5.30;1.00;;;;;;5052078;28;20519;-55
2023/01/23 12:36:51;;;;;;;31.37;18.63;;;5.30;1.00;;;;;;5048973;28;20524;-56
2023/01/23 12:39:51;;;;;;;35.47;20.40;;;5.20;1.00;;;;;;5052072;28;20453;-56
2023/01/23 12:42:24;;;;;;;31.70;18.10;;;5.00;1.00;;;;;;5050172;28;20442;-54
2023/01/23 12:45:10;;;;;;;36.30;21.50;;;4.90;1.00;;;;;;5052439;28;20959;-54
2023/01/23 12:47:57;;;;;;;28.17;18.37;;;5.00;1.00;;;;;;5058890;28;20446;-54
2023/01/23 12:50:37;;;;;;;33.30;17.73;;;5.00;1.00;;;;;;5072142;28;20471;-55
2023/01/23 12:53:11;;;;;;;29.70;19.17;;;4.90;1.00;;;;;;5071840;28;20452;-53
2023/01/23 12:55:52;;;;;;;36.70;19.00;;;4.80;1.00;;;;;;5063217;28;20475;-55
2023/01/23 12:58:18;;;;;;;40.70;22.50;;;5.00;1.00;;;;;;5050933;28;20503;-56
2023/01/23 13:00:51;;;;;;;35.77;20.47;;;5.10;1.00;;;;;;5052103;28;20927;-55
2023/01/23 13:03:22;;;;;;;33.43;20.53;;;5.10;1.00;;;;;;5051980;28;20481;-54
2023/01/23 13:06:01;;;;;;;33.90;18.80;;;5.10;1.00;;;;;;5051897;28;20905;-55
2023/01/23 13:08:42;;;;;;;34.37;20.60;;;4.90;1.00;;;;;;5051594;28;20452;-56